Time,TemperatureF,DewpointF,PressureIn,WindDirection,WindDirectionDegrees,WindSpeedMPH,WindSpeedGustMPH,Humidity,HourlyPrecipIn,Conditions,Clouds,dailyrainin,SoftwareType,DateUTC
2013-06-26 00:11:00,69.3,67.0,29.81,SW,225,6.0,11.0,92,0.03,,,0.09,weatherlink.com 1.10,2013-06-26 05:11:00,
2013-06-26 00:26:00,70.0,67.0,29.81,SW,234,9.0,15.0,91,0.04,,,0.10,weatherlink.com 1.10,2013-06-26 05:26:00,
2013-06-26 00:41:00,69.9,67.0,29.81,SW,214,7.0,11.0,91,0.03,,,0.10,weatherlink.com 1.10,2013-06-26 05:41:00,
2013-06-26 00:56:00,70.0,67.0,29.80,South,173,10.0,13.0,91,0.01,,,0.10,weatherlink.com 1.10,2013-06-26 05:56:00,
2013-06-26 01:11:00,70.4,67.0,29.80,SSW,196,6.0,14.0,89,0.01,,,0.10,weatherlink.com 1.10,2013-06-26 06:11:00,
2013-06-26 01:26:00,70.0,67.0,29.81,SW,217,1.0,7.0,90,0.00,,,0.10,weatherlink.com 1.10,2013-06-26 06:26:00,
2013-06-26 01:41:00,69.3,66.0,29.81,ESE,111,5.0,8.0,90,0.00,,,0.10,weatherlink.com 1.10,2013-06-26 06:41:00,
2013-06-26 01:56:00,70.0,66.0,29.80,SE,146,3.0,7.0,88,0.00,,,0.10,weatherlink.com 1.10,2013-06-26 06:56:00,
2013-06-26 02:11:00,69.2,66.0,29.80,SE,126,4.0,6.0,89,0.00,,,0.10,weatherlink.com 1.10,2013-06-26 07:11:00,
2013-06-26 02:26:00,68.5,66.0,29.80,SSE,149,5.0,9.0,90,0.00,,,0.10,weatherlink.com 1.10,2013-06-26 07:26:00,
2013-06-26 02:41:00,68.5,65.0,29.79,SSE,162,8.0,9.0,89,0.00,,,0.10,weatherlink.com 1.10,2013-06-26 07:41:00,
2013-06-26 02:56:00,68.8,65.0,29.79,SSE,156,6.0,11.0,87,0.00,,,0.00,weatherlink.com 1.10,2013-06-26 07:56:00,
2013-06-26 03:11:00,68.6,65.0,29.79,SSE,161,4.0,11.0,88,0.00,,,0.00,weatherlink.com 1.10,2013-06-26 08:11:00,
2013-06-26 03:26:00,69.3,66.0,29.78,South,182,11.0,13.0,88,0.00,,,0.00,weatherlink.com 1.10,2013-06-26 08:26:00,
2013-06-26 03:41:00,70.2,66.0,29.77,SSE,168,6.0,14.0,86,0.00,,,0.00,weatherlink.com 1.10,2013-06-26 08:41:00,
2013-06-26 03:56:00,70.3,66.0,29.77,South,174,12.0,15.0,87,0.00,,,0.00,weatherlink.com 1.10,2013-06-26 08:56:00,
2013-06-26 04:12:00,69.8,66.0,29.76,SSW,192,8.0,16.0,87,0.00,,,0.00,weatherlink.com 1.10,2013-06-26 09:12:00,
2013-06-26 04:27:00,69.6,66.0,29.77,SSE,166,9.0,20.0,88,0.00,,,0.00,weatherlink.com 1.10,2013-06-26 09:27:00,
2013-06-26 04:42:00,69.4,66.0,29.76,SSW,211,11.0,17.0,89,0.00,,,0.00,weatherlink.com 1.10,2013-06-26 09:42:00,
2013-06-26 04:57:00,69.5,67.0,29.77,South,190,10.0,22.0,90,0.00,,,0.00,weatherlink.com 1.10,2013-06-26 09:57:00,
2013-06-26 05:12:00,69.4,67.0,29.77,SSW,205,8.0,20.0,91,0.00,,,0.00,weatherlink.com 1.10,2013-06-26 10:12:00,
2013-06-26 05:27:00,69.8,67.0,29.77,SSW,199,10.0,21.0,92,0.00,,,0.00,weatherlink.com 1.10,2013-06-26 10:27:00,
2013-06-26 05:42:00,70.1,68.0,29.77,SSW,196,14.0,18.0,92,0.00,,,0.00,weatherlink.com 1.10,2013-06-26 10:42:00,
2013-06-26 05:57:00,70.5,68.0,29.77,SSW,194,6.0,17.0,92,0.00,,,0.00,weatherlink.com 1.10,2013-06-26 10:57:00,
2013-06-26 06:12:00,70.6,68.0,29.77,SSW,202,10.0,16.0,92,0.00,,,0.00,weatherlink.com 1.10,2013-06-26 11:12:00,
2013-06-26 06:27:00,70.7,69.0,29.76,South,175,10.0,15.0,93,0.00,,,0.00,weatherlink.com 1.10,2013-06-26 11:27:00,
2013-06-26 06:42:00,70.8,68.0,29.76,South,177,7.0,14.0,92,0.00,,,0.00,weatherlink.com 1.10,2013-06-26 11:42:00,
2013-06-26 06:57:00,71.1,69.0,29.76,South,182,5.0,14.0,92,0.00,,,0.00,weatherlink.com 1.10,2013-06-26 11:57:00,
2013-06-26 07:12:00,71.3,69.0,29.77,SSW,192,4.0,9.0,93,0.00,,,0.00,weatherlink.com 1.10,2013-06-26 12:12:00,
2013-06-26 07:27:00,71.5,69.0,29.78,SSW,208,7.0,10.0,93,0.00,,,0.00,weatherlink.com 1.10,2013-06-26 12:27:00,
2013-06-26 07:42:00,72.0,70.0,29.77,South,186,9.0,9.0,93,0.00,,,0.00,weatherlink.com 1.10,2013-06-26 12:42:00,
2013-06-26 07:57:00,72.5,70.0,29.77,South,190,7.0,14.0,92,0.00,,,0.00,weatherlink.com 1.10,2013-06-26 12:57:00,
2013-06-26 08:12:00,73.5,71.0,29.77,SSE,163,4.0,10.0,92,0.00,,,0.00,weatherlink.com 1.10,2013-06-26 13:12:00,
2013-06-26 08:27:00,74.2,72.0,29.79,SSW,212,5.0,9.0,91,0.00,,,0.00,weatherlink.com 1.10,2013-06-26 13:27:00,
2013-06-26 08:42:00,74.2,72.0,29.81,SSW,193,12.0,15.0,91,0.01,,,0.01,weatherlink.com 1.10,2013-06-26 13:42:00,
2013-06-26 08:57:00,72.8,71.0,29.79,West,259,5.0,7.0,93,0.13,,,0.13,weatherlink.com 1.10,2013-06-26 13:57:00,
2013-06-26 09:12:00,72.5,71.0,29.78,WSW,257,4.0,4.0,94,0.13,,,0.13,weatherlink.com 1.10,2013-06-26 14:12:00,
2013-06-26 09:27:00,72.7,71.0,29.77,WSW,248,3.0,4.0,94,0.13,,,0.13,weatherlink.com 1.10,2013-06-26 14:27:00,
2013-06-26 09:42:00,73.0,72.0,29.78,SSE,166,3.0,7.0,95,0.10,,,0.13,weatherlink.com 1.10,2013-06-26 14:42:00,
2013-06-26 09:57:00,72.9,71.0,29.76,SSE,165,3.0,6.0,95,0.00,,,0.13,weatherlink.com 1.10,2013-06-26 14:57:00,
2013-06-26 10:12:00,73.0,72.0,29.75,SE,141,5.0,8.0,95,0.01,,,0.14,weatherlink.com 1.10,2013-06-26 15:12:00,
2013-06-26 10:27:00,73.2,72.0,29.73,SE,146,8.0,13.0,95,0.01,,,0.14,weatherlink.com 1.10,2013-06-26 15:27:00,
2013-06-26 10:42:00,74.2,73.0,29.70,SSE,162,14.0,17.0,95,0.02,,,0.15,weatherlink.com 1.10,2013-06-26 15:42:00,
2013-06-26 10:57:00,76.2,74.0,29.71,SSW,201,16.0,19.0,93,0.02,,,0.15,weatherlink.com 1.10,2013-06-26 15:57:00,
2013-06-26 11:13:00,78.7,74.0,29.72,SSW,198,11.0,21.0,85,0.01,,,0.15,weatherlink.com 1.10,2013-06-26 16:13:00,
2013-06-26 11:28:00,78.6,75.0,29.74,SSW,209,8.0,16.0,87,0.01,,,0.15,weatherlink.com 1.10,2013-06-26 16:28:00,
2013-06-26 11:43:00,79.2,75.0,29.75,SW,225,11.0,17.0,86,0.00,,,0.15,weatherlink.com 1.10,2013-06-26 16:43:00,
2013-06-26 11:58:00,78.8,74.0,29.76,SW,233,8.0,21.0,86,0.00,,,0.15,weatherlink.com 1.10,2013-06-26 16:58:00,
2013-06-26 12:13:00,79.4,74.0,29.76,SW,226,14.0,19.0,82,0.00,,,0.15,weatherlink.com 1.10,2013-06-26 17:13:00,
2013-06-26 12:28:00,79.7,73.0,29.76,SW,215,7.0,16.0,80,0.00,,,0.15,weatherlink.com 1.10,2013-06-26 17:28:00,
2013-06-26 12:43:00,79.2,72.0,29.76,SW,226,10.0,15.0,78,0.00,,,0.15,weatherlink.com 1.10,2013-06-26 17:43:00,
2013-06-26 12:58:00,79.9,72.0,29.75,SW,225,10.0,17.0,76,0.00,,,0.15,weatherlink.com 1.10,2013-06-26 17:58:00,
2013-06-26 13:13:00,79.3,70.0,29.74,SW,224,12.0,18.0,73,0.00,,,0.15,weatherlink.com 1.10,2013-06-26 18:13:00,
2013-06-26 13:28:00,79.8,69.0,29.74,SSW,198,11.0,16.0,69,0.00,,,0.15,weatherlink.com 1.10,2013-06-26 18:28:00,
2013-06-26 13:43:00,79.6,70.0,29.73,SSW,210,12.0,17.0,72,0.00,,,0.15,weatherlink.com 1.10,2013-06-26 18:43:00,
2013-06-26 13:58:00,79.6,70.0,29.73,SW,236,12.0,17.0,73,0.00,,,0.15,weatherlink.com 1.10,2013-06-26 18:58:00,
2013-06-26 14:13:00,79.1,71.0,29.73,SSW,206,7.0,14.0,77,0.00,,,0.15,weatherlink.com 1.10,2013-06-26 19:13:00,
2013-06-26 14:28:00,79.4,72.0,29.72,South,189,5.0,13.0,77,0.00,,,0.15,weatherlink.com 1.10,2013-06-26 19:28:00,
2013-06-26 14:43:00,79.5,71.0,29.72,SSW,210,7.0,12.0,76,0.00,,,0.15,weatherlink.com 1.10,2013-06-26 19:43:00,
2013-06-26 14:58:00,80.1,72.0,29.73,West,263,9.0,14.0,77,0.00,,,0.15,weatherlink.com 1.10,2013-06-26 19:58:00,
2013-06-26 15:13:00,79.7,69.0,29.73,SW,233,8.0,12.0,70,0.00,,,0.15,weatherlink.com 1.10,2013-06-26 20:13:00,
2013-06-26 15:28:00,81.0,71.0,29.73,WSW,243,9.0,10.0,72,0.00,,,0.15,weatherlink.com 1.10,2013-06-26 20:28:00,
2013-06-26 15:43:00,80.4,71.0,29.73,SW,230,3.0,10.0,74,0.00,,,0.15,weatherlink.com 1.10,2013-06-26 20:43:00,
2013-06-26 15:58:00,81.4,72.0,29.72,West,261,7.0,10.0,73,0.00,,,0.15,weatherlink.com 1.10,2013-06-26 20:58:00,
2013-06-26 16:13:00,83.2,73.0,29.71,WNW,303,5.0,10.0,72,0.00,,,0.15,weatherlink.com 1.10,2013-06-26 21:13:00,
2013-06-26 16:28:00,83.0,73.0,29.69,West,259,2.0,11.0,71,0.00,,,0.15,weatherlink.com 1.10,2013-06-26 21:28:00,
2013-06-26 16:43:00,83.8,73.0,29.69,West,269,3.0,9.0,71,0.00,,,0.15,weatherlink.com 1.10,2013-06-26 21:43:00,
2013-06-26 16:58:00,83.9,73.0,29.69,WNW,301,4.0,8.0,70,0.00,,,0.15,weatherlink.com 1.10,2013-06-26 21:58:00,
2013-06-26 17:13:00,83.9,74.0,29.69,WSW,248,3.0,8.0,71,0.00,,,0.15,weatherlink.com 1.10,2013-06-26 22:13:00,
2013-06-26 17:28:00,83.5,74.0,29.70,West,280,4.0,7.0,73,0.00,,,0.15,weatherlink.com 1.10,2013-06-26 22:28:00,
2013-06-26 17:43:00,83.7,74.0,29.70,WNW,282,1.0,6.0,72,0.00,,,0.15,weatherlink.com 1.10,2013-06-26 22:43:00,
2013-06-26 17:58:00,84.2,74.0,29.70,WNW,290,1.0,5.0,72,0.00,,,0.15,weatherlink.com 1.10,2013-06-26 22:58:00,
2013-06-26 18:13:00,84.6,74.0,29.70,WNW,289,4.0,5.0,70,0.00,,,0.15,weatherlink.com 1.10,2013-06-26 23:13:00,
2013-06-26 18:28:00,84.4,74.0,29.70,WNW,286,0.0,7.0,71,0.00,,,0.15,weatherlink.com 1.10,2013-06-26 23:28:00,
2013-06-26 18:43:00,83.9,74.0,29.70,WNW,294,2.0,6.0,71,0.00,,,0.15,weatherlink.com 1.10,2013-06-26 23:43:00,
2013-06-26 18:58:00,84.0,73.0,29.69,WNW,293,4.0,7.0,70,0.00,,,0.15,weatherlink.com 1.10,2013-06-26 23:58:00,
2013-06-26 19:13:00,83.0,74.0,29.69,WNW,293,2.0,9.0,74,0.00,,,0.15,weatherlink.com 1.10,2013-06-27 00:13:00,
2013-06-26 19:28:00,81.8,74.0,29.69,WNW,293,1.0,5.0,77,0.00,,,0.15,weatherlink.com 1.10,2013-06-27 00:28:00,
2013-06-26 19:43:00,81.4,74.0,29.70,WNW,293,1.0,5.0,79,0.00,,,0.15,weatherlink.com 1.10,2013-06-27 00:43:00,
2013-06-26 19:58:00,80.9,74.0,29.70,NNW,330,2.0,6.0,80,0.00,,,0.15,weatherlink.com 1.10,2013-06-27 00:58:00,
2013-06-26 20:13:00,80.2,74.0,29.69,North,355,0.0,4.0,81,0.00,,,0.15,weatherlink.com 1.10,2013-06-27 01:13:00,
2013-06-26 20:28:00,79.7,74.0,29.69,North,355,3.0,5.0,82,0.00,,,0.15,weatherlink.com 1.10,2013-06-27 01:28:00,
2013-06-26 20:43:00,79.3,74.0,29.69,North,355,3.0,4.0,83,0.00,,,0.15,weatherlink.com 1.10,2013-06-27 01:43:00,
2013-06-26 20:58:00,78.9,74.0,29.70,North,355,0.0,3.0,84,0.00,,,0.15,weatherlink.com 1.10,2013-06-27 01:58:00,
2013-06-26 21:13:00,78.7,74.0,29.71,North,355,0.0,2.0,85,0.00,,,0.15,weatherlink.com 1.10,2013-06-27 02:13:00,
2013-06-26 21:28:00,78.4,74.0,29.71,North,355,0.0,2.0,85,0.00,,,0.15,weatherlink.com 1.10,2013-06-27 02:28:00,
2013-06-26 21:43:00,77.9,74.0,29.72,North,355,1.0,3.0,86,0.00,,,0.15,weatherlink.com 1.10,2013-06-27 02:43:00,
2013-06-26 21:58:00,77.1,73.0,29.72,North,355,0.0,1.0,88,0.00,,,0.15,weatherlink.com 1.10,2013-06-27 02:58:00,
2013-06-26 22:13:00,76.3,73.0,29.72,North,355,0.0,0.0,90,0.00,,,0.15,weatherlink.com 1.10,2013-06-27 03:13:00,
2013-06-26 22:28:00,75.8,73.0,29.73,North,355,0.0,0.0,91,0.00,,,0.15,weatherlink.com 1.10,2013-06-27 03:28:00,
2013-06-26 22:43:00,75.9,73.0,29.73,North,355,0.0,1.0,91,0.00,,,0.15,weatherlink.com 1.10,2013-06-27 03:43:00,
2013-06-26 22:58:00,76.1,73.0,29.73,North,355,0.0,2.0,90,0.00,,,0.15,weatherlink.com 1.10,2013-06-27 03:58:00,
2013-06-26 23:13:00,76.4,73.0,29.73,North,355,1.0,3.0,89,0.00,,,0.15,weatherlink.com 1.10,2013-06-27 04:13:00,
2013-06-26 23:28:00,75.9,73.0,29.74,North,355,2.0,3.0,89,0.00,,,0.15,weatherlink.com 1.10,2013-06-27 04:28:00,
2013-06-26 23:43:00,75.4,73.0,29.75,North,355,0.0,0.0,92,0.00,,,0.15,weatherlink.com 1.10,2013-06-27 04:43:00,
2013-06-26 23:58:00,75.7,73.0,29.75,North,355,0.0,0.0,92,0.00,,,0.15,weatherlink.com 1.10,2013-06-27 04:58:00,